Time;durP1;ratioP1;P1;durP2;ratioP2;P2;SDS_P1;SDS_P2;PMS_P1;PMS_P2;Temp;Humidity;BMP_temperature;BMP_pressure;BME280_temperature;BME280_humidity;BME280_pressure;Samples;Min_cycle;Max_cycle;Signal;HPM_P1;HPM_P2
2021/12/04 00:00:21;;;;;;;67.10;33.03;;;;;;;;;;6308715;22;20169;-85
2021/12/04 00:02:54;;;;;;;90.00;45.53;;;;;;;;;;6308318;22;20192;-85
2021/12/04 00:05:23;;;;;;;72.73;33.57;;;;;;;;;;6308469;22;20198;-84
2021/12/04 00:07:52;;;;;;;85.90;41.97;;;;;;;;;;6308119;22;20172;-84
2021/12/04 00:10:22;;;;;;;48.97;23.60;;;;;;;;;;6308417;22;20173;-85
2021/12/04 00:12:52;;;;;;;89.93;41.13;;;;;;;;;;6308179;22;20172;-85
2021/12/04 00:15:20;;;;;;;65.60;29.93;;;;;;;;;;6308585;22;20172;-85
2021/12/04 00:17:49;;;;;;;50.07;24.33;;;;;;;;;;6308611;22;20172;-85
2021/12/04 00:20:17;;;;;;;93.73;42.73;;;;;;;;;;6309015;22;20262;-85
2021/12/04 00:22:46;;;;;;;94.27;40.17;;;;;;;;;;6308391;22;20196;-85
2021/12/04 00:25:14;;;;;;;89.37;36.13;;;;;;;;;;6307837;22;20215;-84
2021/12/04 00:27:44;;;;;;;114.00;45.70;;;;;;;;;;6308521;22;20226;-85
2021/12/04 00:30:14;;;;;;;114.53;45.97;;;;;;;;;;6307979;22;20271;-85
2021/12/04 00:32:54;;;;;;;47.00;23.40;;;;;;;;;;6307800;22;20177;-85
2021/12/04 00:35:33;;;;;;;117.27;40.90;;;;;;;;;;6308512;22;20164;-85
2021/12/04 00:49:13;;;;;;;152.17;52.63;;;;;;;;;;6307996;22;20192;-85
2021/12/04 00:51:43;;;;;;;122.30;40.63;;;;;;;;;;6308428;22;20160;-85
2021/12/04 00:54:12;;;;;;;137.87;43.43;;;;;;;;;;6307900;22;20169;-85
2021/12/04 00:56:41;;;;;;;151.17;50.17;;;;;;;;;;6307985;22;20173;-85
2021/12/04 00:59:10;;;;;;;96.47;32.00;;;;;;;;;;6307897;22;20172;-85
2021/12/04 01:01:41;;;;;;;48.80;18.33;;;;;;;;;;6308409;22;20207;-85
2021/12/04 01:04:10;;;;;;;159.50;53.60;;;;;;;;;;6307782;22;20207;-85
2021/12/04 01:06:39;;;;;;;115.67;37.23;;;;;;;;;;6309553;22;20196;-85
2021/12/04 01:09:09;;;;;;;165.23;53.03;;;;;;;;;;6310271;22;20198;-85
2021/12/04 01:11:38;;;;;;;88.23;30.00;;;;;;;;;;6309914;22;20187;-85
2021/12/04 01:14:07;;;;;;;108.47;35.77;;;;;;;;;;6309847;22;20169;-85
2021/12/04 01:16:36;;;;;;;147.73;44.40;;;;;;;;;;6310136;22;20176;-85
2021/12/04 01:19:06;;;;;;;169.50;54.37;;;;;;;;;;6310617;22;20173;-84
2021/12/04 01:21:34;;;;;;;152.83;49.73;;;;;;;;;;6309703;22;20164;-85
2021/12/04 01:24:03;;;;;;;173.93;47.83;;;;;;;;;;6309707;22;20189;-85
2021/12/04 01:26:31;;;;;;;182.83;54.10;;;;;;;;;;6309294;22;20172;-85
2021/12/04 01:29:00;;;;;;;145.73;46.33;;;;;;;;;;6309849;22;20196;-85
2021/12/04 01:31:28;;;;;;;130.77;39.47;;;;;;;;;;6309994;22;20172;-85
2021/12/04 01:33:57;;;;;;;134.17;40.83;;;;;;;;;;6309645;22;20179;-85
2021/12/04 01:36:27;;;;;;;136.97;45.77;;;;;;;;;;6309606;22;20179;-85
2021/12/04 01:38:56;;;;;;;201.40;65.23;;;;;;;;;;6310031;22;20169;-85
2021/12/04 01:41:27;;;;;;;199.10;57.77;;;;;;;;;;6309970;22;20198;-85
2021/12/04 01:43:59;;;;;;;147.67;41.30;;;;;;;;;;6309134;22;20208;-85
2021/12/04 01:46:27;;;;;;;195.57;57.13;;;;;;;;;;6309552;22;20183;-85
2021/12/04 01:48:56;;;;;;;181.53;50.90;;;;;;;;;;6310006;22;20168;-85
2021/12/04 01:51:28;;;;;;;178.67;43.20;;;;;;;;;;6309161;22;20188;-86
2021/12/04 01:53:56;;;;;;;196.57;56.33;;;;;;;;;;6309607;22;20183;-85
2021/12/04 01:56:25;;;;;;;165.27;50.47;;;;;;;;;;6309518;22;20177;-85
2021/12/04 01:58:55;;;;;;;181.67;54.13;;;;;;;;;;6309821;22;20172;-86
2021/12/04 02:01:23;;;;;;;214.13;61.10;;;;;;;;;;6309315;22;20173;-85
2021/12/04 02:03:52;;;;;;;238.93;64.73;;;;;;;;;;6309707;22;20192;-85
2021/12/04 02:06:20;;;;;;;236.53;63.80;;;;;;;;;;6309814;22;20194;-85
2021/12/04 02:08:51;;;;;;;188.63;50.57;;;;;;;;;;6309786;22;20185;-85
2021/12/04 02:11:20;;;;;;;149.30;42.57;;;;;;;;;;6309853;22;20255;-85
2021/12/04 02:13:48;;;;;;;242.13;68.63;;;;;;;;;;6309125;22;20173;-86
2021/12/04 02:16:17;;;;;;;181.90;50.83;;;;;;;;;;6309459;22;20172;-85
2021/12/04 02:18:46;;;;;;;123.83;42.97;;;;;;;;;;6309603;22;20173;-85
2021/12/04 02:21:16;;;;;;;238.57;58.53;;;;;;;;;;6309588;22;20173;-85
2021/12/04 02:23:48;;;;;;;299.43;78.53;;;;;;;;;;6309242;22;20204;-85
2021/12/04 02:26:16;;;;;;;173.77;42.33;;;;;;;;;;6308974;22;20360;-85
2021/12/04 02:28:45;;;;;;;181.67;52.30;;;;;;;;;;6309312;22;20173;-85
2021/12/04 02:31:17;;;;;;;228.53;64.63;;;;;;;;;;6309107;22;20172;-85
2021/12/04 02:33:46;;;;;;;267.13;63.53;;;;;;;;;;6309192;22;20172;-85
2021/12/04 02:36:16;;;;;;;181.80;53.60;;;;;;;;;;6309320;22;20218;-85
2021/12/04 02:38:49;;;;;;;244.73;59.13;;;;;;;;;;6308945;22;20172;-86
2021/12/04 02:41:17;;;;;;;155.97;42.13;;;;;;;;;;6309464;22;20176;-85
2021/12/04 02:43:46;;;;;;;62.47;24.40;;;;;;;;;;6309369;22;20206;-85
2021/12/04 02:46:14;;;;;;;263.87;70.77;;;;;;;;;;6309281;22;20230;-85
2021/12/04 02:48:43;;;;;;;228.53;55.83;;;;;;;;;;6309297;22;20172;-85
2021/12/04 02:51:14;;;;;;;196.87;48.27;;;;;;;;;;6308746;22;20172;-85
2021/12/04 02:53:44;;;;;;;1.77;1.73;;;;;;;;;;6308726;22;20235;-85
2021/12/04 02:56:12;;;;;;;67.93;22.27;;;;;;;;;;6309257;22;20169;-86
2021/12/04 02:58:44;;;;;;;187.00;49.57;;;;;;;;;;6309198;22;20230;-85
2021/12/04 03:01:13;;;;;;;202.67;48.60;;;;;;;;;;6308917;22;20173;-85
2021/12/04 03:03:42;;;;;;;221.83;50.00;;;;;;;;;;6309355;22;20188;-85
2021/12/04 03:06:10;;;;;;;249.70;61.47;;;;;;;;;;6308640;22;20192;-85
2021/12/04 03:08:39;;;;;;;259.00;60.57;;;;;;;;;;6309031;22;20173;-85
2021/12/04 03:11:08;;;;;;;180.27;48.33;;;;;;;;;;6308821;22;20173;-85
2021/12/04 03:13:37;;;;;;;199.97;48.80;;;;;;;;;;6309116;22;20206;-85
2021/12/04 03:16:05;;;;;;;250.37;64.27;;;;;;;;;;6308935;22;20164;-85
2021/12/04 03:18:34;;;;;;;124.43;32.47;;;;;;;;;;6309024;22;20247;-85
2021/12/04 03:21:04;;;;;;;119.30;33.57;;;;;;;;;;6309061;22;20172;-85
2021/12/04 03:23:40;;;;;;;255.67;57.97;;;;;;;;;;6308574;22;20172;-85
2021/12/04 03:26:11;;;;;;;132.50;37.17;;;;;;;;;;6308426;22;20192;-85
2021/12/04 03:28:40;;;;;;;228.40;55.13;;;;;;;;;;6308448;22;20168;-85
2021/12/04 03:31:12;;;;;;;150.53;42.53;;;;;;;;;;6308620;22;20196;-85
2021/12/04 03:42:00;;;;;;;239.50;56.27;;;;;;;;;;6308628;22;20203;-85
2021/12/04 03:44:31;;;;;;;267.27;66.90;;;;;;;;;;6308229;22;20204;-85
2021/12/04 03:46:59;;;;;;;333.90;81.70;;;;;;;;;;6308492;22;20290;-85
2021/12/04 03:49:28;;;;;;;286.57;68.40;;;;;;;;;;6308682;22;20168;-85
2021/12/04 03:51:56;;;;;;;299.97;74.30;;;;;;;;;;6308773;22;20175;-85
2021/12/04 03:54:25;;;;;;;172.53;44.60;;;;;;;;;;6308675;22;20177;-85
2021/12/04 03:57:02;;;;;;;184.43;44.43;;;;;;;;;;6308447;22;20221;-85
2021/12/04 03:59:32;;;;;;;265.37;66.07;;;;;;;;;;6309289;22;20211;-85
2021/12/04 04:02:01;;;;;;;175.73;43.17;;;;;;;;;;6308841;22;20172;-85
2021/12/04 04:04:30;;;;;;;264.23;67.93;;;;;;;;;;6308713;22;20245;-85
2021/12/04 04:06:59;;;;;;;250.43;60.13;;;;;;;;;;6308373;22;20285;-86
2021/12/04 04:09:27;;;;;;;193.20;52.57;;;;;;;;;;6308759;22;20172;-85
2021/12/04 04:11:56;;;;;;;39.67;18.80;;;;;;;;;;6308162;22;20173;-85
2021/12/04 04:14:25;;;;;;;224.43;52.03;;;;;;;;;;6308154;22;20179;-85
2021/12/04 04:16:56;;;;;;;227.03;57.57;;;;;;;;;;6308452;22;20221;-85
2021/12/04 04:19:25;;;;;;;270.23;62.07;;;;;;;;;;6308051;22;20227;-85
2021/12/04 04:21:56;;;;;;;240.13;60.37;;;;;;;;;;6308622;22;20172;-85
2021/12/04 04:24:25;;;;;;;138.23;43.90;;;;;;;;;;6307787;22;20176;-86
2021/12/04 04:26:54;;;;;;;284.27;68.80;;;;;;;;;;6308279;22;20247;-85
2021/12/04 04:29:24;;;;;;;236.63;64.60;;;;;;;;;;6308494;22;20175;-85
2021/12/04 04:31:54;;;;;;;204.23;56.60;;;;;;;;;;6308213;22;20172;-85
2021/12/04 04:34:29;;;;;;;107.87;32.33;;;;;;;;;;6307820;22;20178;-85
2021/12/04 04:37:08;;;;;;;163.10;45.13;;;;;;;;;;6308238;22;20168;-85
2021/12/04 04:59:27;;;;;;;187.50;43.57;;;;;;;;;;6271221;22;20168;-85
2021/12/04 05:02:19;;;;;;;314.00;72.63;;;;;;;;;;6307786;22;20172;-85
2021/12/04 05:10:51;;;;;;;328.80;68.07;;;;;;;;;;6308086;22;20173;-85
2021/12/04 05:13:21;;;;;;;117.47;28.27;;;;;;;;;;6308392;22;20237;-86
2021/12/04 05:16:00;;;;;;;173.97;40.67;;;;;;;;;;6308191;22;20180;-85
2021/12/04 05:18:37;;;;;;;226.13;49.47;;;;;;;;;;6307665;22;20168;-85
2021/12/04 05:21:06;;;;;;;275.73;58.20;;;;;;;;;;6308388;22;20165;-85
2021/12/04 05:23:37;;;;;;;320.60;70.50;;;;;;;;;;6308381;22;20173;-85
2021/12/04 05:26:11;;;;;;;345.60;68.97;;;;;;;;;;6307505;22;20245;-85
2021/12/04 05:28:40;;;;;;;324.67;69.53;;;;;;;;;;6308293;22;20163;-85
2021/12/04 05:31:08;;;;;;;260.83;54.97;;;;;;;;;;6307612;22;20203;-85
2021/12/04 05:33:39;;;;;;;312.83;63.57;;;;;;;;;;6308177;22;20169;-85
2021/12/04 05:36:07;;;;;;;192.00;47.37;;;;;;;;;;6308176;22;20160;-85
2021/12/04 05:38:38;;;;;;;146.93;32.43;;;;;;;;;;6307643;22;20229;-85
2021/12/04 05:41:06;;;;;;;255.10;57.97;;;;;;;;;;6308198;22;20218;-85
2021/12/04 05:43:38;;;;;;;253.53;57.83;;;;;;;;;;6307807;22;20172;-85
2021/12/04 05:46:12;;;;;;;251.20;50.73;;;;;;;;;;6307657;22;20254;-85
2021/12/04 05:48:46;;;;;;;152.50;31.80;;;;;;;;;;6308275;22;20159;-85
2021/12/04 05:54:04;;;;;;;180.73;39.20;;;;;;;;;;6305705;22;20176;-85
2021/12/04 05:56:35;;;;;;;72.20;16.30;;;;;;;;;;6309451;22;20164;-85
2021/12/04 05:59:04;;;;;;;170.00;39.00;;;;;;;;;;6309724;22;20171;-85
2021/12/04 06:01:33;;;;;;;191.53;42.83;;;;;;;;;;6309267;22;20172;-85
2021/12/04 06:04:01;;;;;;;101.67;28.87;;;;;;;;;;6309261;22;20250;-85
2021/12/04 06:06:30;;;;;;;225.93;50.17;;;;;;;;;;6309776;22;20207;-85
2021/12/04 06:09:05;;;;;;;85.33;21.27;;;;;;;;;;6309419;22;20192;-85
2021/12/04 06:11:33;;;;;;;153.97;37.50;;;;;;;;;;6309128;22;20222;-85
2021/12/04 06:14:02;;;;;;;279.70;55.90;;;;;;;;;;6309269;22;20238;-85
2021/12/04 06:16:31;;;;;;;160.17;32.00;;;;;;;;;;6309647;22;20176;-85
2021/12/04 06:19:08;;;;;;;329.73;66.00;;;;;;;;;;6309365;22;20222;-85
2021/12/04 06:24:24;;;;;;;162.73;36.07;;;;;;;;;;6262437;22;20218;-85
2021/12/04 06:26:52;;;;;;;163.10;35.80;;;;;;;;;;6309147;22;20204;-85
2021/12/04 06:29:21;;;;;;;137.37;37.70;;;;;;;;;;6309416;22;20180;-85
2021/12/04 06:31:50;;;;;;;186.20;42.53;;;;;;;;;;6308838;22;20234;-85
2021/12/04 06:34:18;;;;;;;193.27;44.00;;;;;;;;;;6309097;22;20172;-84
2021/12/04 06:36:47;;;;;;;253.73;58.90;;;;;;;;;;6308882;22;20168;-85
2021/12/04 06:39:15;;;;;;;156.70;35.20;;;;;;;;;;6309266;22;20180;-85
2021/12/04 06:41:45;;;;;;;258.43;56.00;;;;;;;;;;6308913;22;20176;-85
2021/12/04 06:44:14;;;;;;;160.60;31.03;;;;;;;;;;6309062;22;20229;-85
2021/12/04 06:46:42;;;;;;;301.33;62.60;;;;;;;;;;6308560;22;20196;-85
2021/12/04 06:49:14;;;;;;;340.60;69.97;;;;;;;;;;6309058;22;20177;-85
2021/12/04 06:51:47;;;;;;;307.30;59.40;;;;;;;;;;6309440;22;20165;-85
2021/12/04 06:54:18;;;;;;;278.83;52.83;;;;;;;;;;6309193;22;20165;-85
2021/12/04 06:56:48;;;;;;;377.83;72.00;;;;;;;;;;6309382;22;20206;-85
2021/12/04 06:59:21;;;;;;;287.43;54.27;;;;;;;;;;6308929;22;20172;-85
2021/12/04 07:01:49;;;;;;;274.63;55.70;;;;;;;;;;6309484;22;20164;-85
2021/12/04 07:04:20;;;;;;;107.10;28.77;;;;;;;;;;6308820;22;20199;-85
2021/12/04 07:06:50;;;;;;;122.57;30.57;;;;;;;;;;6309146;22;20188;-86
2021/12/04 07:09:19;;;;;;;192.67;43.70;;;;;;;;;;6309261;22;20224;-85
2021/12/04 07:11:48;;;;;;;204.20;46.37;;;;;;;;;;6308587;22;20176;-85
2021/12/04 07:14:17;;;;;;;139.90;31.27;;;;;;;;;;6308641;22;20179;-85
2021/12/04 07:16:46;;;;;;;149.13;32.27;;;;;;;;;;6308697;22;20169;-85
2021/12/04 07:19:15;;;;;;;169.60;37.53;;;;;;;;;;6308665;22;20222;-86
2021/12/04 07:21:44;;;;;;;91.87;22.83;;;;;;;;;;6308793;22;20202;-85
2021/12/04 07:24:13;;;;;;;251.37;44.13;;;;;;;;;;6309280;22;20176;-85
2021/12/04 07:26:41;;;;;;;340.93;66.20;;;;;;;;;;6308949;22;20211;-85
2021/12/04 07:29:11;;;;;;;187.67;38.57;;;;;;;;;;6308537;22;20173;-85
2021/12/04 07:31:40;;;;;;;184.70;40.43;;;;;;;;;;6308427;22;20168;-85
2021/12/04 07:34:08;;;;;;;257.00;51.87;;;;;;;;;;6308813;22;20172;-85
2021/12/04 07:36:37;;;;;;;114.87;26.00;;;;;;;;;;6308937;22;20177;-85
2021/12/04 07:39:05;;;;;;;276.30;54.83;;;;;;;;;;6308526;22;20222;-85
2021/12/04 07:41:38;;;;;;;263.47;57.70;;;;;;;;;;6308367;22;20168;-86
2021/12/04 07:44:08;;;;;;;302.67;61.73;;;;;;;;;;6308578;22;20214;-85
2021/12/04 07:46:38;;;;;;;218.93;48.73;;;;;;;;;;6309133;22;20164;-85
2021/12/04 07:49:07;;;;;;;196.40;45.80;;;;;;;;;;6309075;22;20222;-85
2021/12/04 07:51:35;;;;;;;114.20;27.83;;;;;;;;;;6308740;22;20225;-86
2021/12/04 07:54:04;;;;;;;216.73;49.40;;;;;;;;;;6308989;22;20179;-85
2021/12/04 07:56:33;;;;;;;210.07;42.70;;;;;;;;;;6308304;22;20172;-84
2021/12/04 07:59:01;;;;;;;260.27;63.53;;;;;;;;;;6308283;22;20168;-85
2021/12/04 08:01:30;;;;;;;101.10;27.07;;;;;;;;;;6308406;22;20173;-85
2021/12/04 08:04:00;;;;;;;143.07;33.90;;;;;;;;;;6308571;22;20246;-85
2021/12/04 08:06:28;;;;;;;257.83;57.13;;;;;;;;;;6308749;22;20234;-85
2021/12/04 08:08:58;;;;;;;260.77;53.20;;;;;;;;;;6308552;22;20247;-85
2021/12/04 08:11:31;;;;;;;289.00;60.60;;;;;;;;;;6308265;22;20178;-85
2021/12/04 08:14:00;;;;;;;247.80;55.37;;;;;;;;;;6308599;22;20234;-86
2021/12/04 08:16:28;;;;;;;194.60;42.63;;;;;;;;;;6308034;22;20172;-85
2021/12/04 08:18:57;;;;;;;240.93;51.57;;;;;;;;;;6308240;22;20176;-85
2021/12/04 08:21:27;;;;;;;232.13;53.47;;;;;;;;;;6307877;22;20172;-85
2021/12/04 08:23:56;;;;;;;195.63;48.20;;;;;;;;;;6308437;22;20172;-85
2021/12/04 08:26:24;;;;;;;215.13;54.67;;;;;;;;;;6308164;22;20173;-85
2021/12/04 08:28:53;;;;;;;227.57;66.27;;;;;;;;;;6308271;22;20192;-85
2021/12/04 08:31:21;;;;;;;63.60;20.47;;;;;;;;;;6308354;22;20198;-85
2021/12/04 08:33:50;;;;;;;139.13;31.40;;;;;;;;;;6308148;22;20172;-86
2021/12/04 08:36:18;;;;;;;128.70;36.57;;;;;;;;;;6307917;22;20206;-85
2021/12/04 08:38:48;;;;;;;176.50;42.50;;;;;;;;;;6308553;22;20164;-85
2021/12/04 08:41:17;;;;;;;160.27;42.97;;;;;;;;;;6308268;22;20179;-83
2021/12/04 08:43:45;;;;;;;65.03;21.77;;;;;;;;;;6308262;22;20172;-85
2021/12/04 08:46:16;;;;;;;125.60;42.33;;;;;;;;;;6307996;22;20205;-85
2021/12/04 08:48:45;;;;;;;180.27;50.57;;;;;;;;;;6308189;22;20238;-85
2021/12/04 08:51:13;;;;;;;179.70;48.83;;;;;;;;;;6308231;22;20172;-85
2021/12/04 08:53:42;;;;;;;197.23;45.93;;;;;;;;;;6308321;22;20182;-85
2021/12/04 08:56:12;;;;;;;168.83;52.67;;;;;;;;;;6308315;22;20176;-85
2021/12/04 08:58:41;;;;;;;181.97;54.13;;;;;;;;;;6308264;22;20211;-85
2021/12/04 09:01:12;;;;;;;127.63;40.03;;;;;;;;;;6308328;22;20172;-85
2021/12/04 09:03:43;;;;;;;129.40;37.10;;;;;;;;;;6307663;22;20191;-85
2021/12/04 09:06:13;;;;;;;119.93;38.73;;;;;;;;;;6308393;22;20169;-85
2021/12/04 09:08:41;;;;;;;64.60;21.33;;;;;;;;;;6307680;22;20188;-85
2021/12/04 09:11:12;;;;;;;84.20;23.97;;;;;;;;;;6308469;22;20173;-85
2021/12/04 09:13:42;;;;;;;151.13;29.57;;;;;;;;;;6307737;22;20173;-85
2021/12/04 09:16:11;;;;;;;168.10;45.63;;;;;;;;;;6307918;22;20191;-85
2021/12/04 09:18:39;;;;;;;143.17;47.23;;;;;;;;;;6308084;22;20168;-85
2021/12/04 09:21:10;;;;;;;172.23;57.13;;;;;;;;;;6307840;22;20173;-85
2021/12/04 09:23:41;;;;;;;180.73;62.30;;;;;;;;;;6308050;22;20187;-85
2021/12/04 09:26:15;;;;;;;164.80;54.40;;;;;;;;;;6308419;22;20161;-85
2021/12/04 09:28:52;;;;;;;166.03;53.07;;;;;;;;;;6309848;22;20190;-85
2021/12/04 09:31:33;;;;;;;121.33;37.23;;;;;;;;;;6309948;22;20229;-85
2021/12/04 09:37:01;;;;;;;187.17;50.37;;;;;;;;;;6298807;22;20168;-85
2021/12/04 09:59:35;;;;;;;173.30;35.20;;;;;;;;;;6309460;22;20204;-86
2021/12/04 10:02:15;;;;;;;149.43;40.03;;;;;;;;;;6309256;22;20247;-86
2021/12/04 10:19:17;;;;;;;97.57;39.17;;;;;;;;;;6309670;22;20153;-86
2021/12/04 10:21:58;;;;;;;90.67;30.10;;;;;;;;;;6309251;22;20157;-86
2021/12/04 10:24:43;;;;;;;101.47;37.27;;;;;;;;;;6309274;22;20233;-86
2021/12/04 10:33:08;;;;;;;177.27;58.87;;;;;;;;;;6258495;22;20218;-85
2021/12/04 10:35:38;;;;;;;159.60;49.80;;;;;;;;;;6309714;22;20164;-86
2021/12/04 10:38:08;;;;;;;138.33;50.93;;;;;;;;;;6308893;22;20172;-86
2021/12/04 10:40:41;;;;;;;97.10;42.17;;;;;;;;;;6309162;22;20218;-84
2021/12/04 10:43:12;;;;;;;80.13;37.87;;;;;;;;;;6309255;22;20195;-86
2021/12/04 10:45:42;;;;;;;81.83;40.83;;;;;;;;;;6309042;22;20265;-86
2021/12/04 10:48:15;;;;;;;64.83;28.50;;;;;;;;;;6308922;22;20225;-86
2021/12/04 10:50:50;;;;;;;19.90;11.40;;;;;;;;;;6309614;22;20190;-85
2021/12/04 10:53:21;;;;;;;71.73;32.33;;;;;;;;;;6309173;22;20233;-86
2021/12/04 10:55:53;;;;;;;79.20;32.90;;;;;;;;;;6309114;22;20164;-86
2021/12/04 11:04:15;;;;;;;102.93;36.53;;;;;;;;;;6297927;22;20188;-86
2021/12/04 11:07:06;;;;;;;105.97;43.67;;;;;;;;;;6309468;22;20198;-86
2021/12/04 11:38:08;;;;;;;47.30;18.80;;;;;;;;;;6244773;23;20180;-86
2021/12/04 11:40:53;;;;;;;35.93;16.50;;;;;;;;;;6244615;23;20204;-86
2021/12/04 11:43:23;;;;;;;92.77;39.37;;;;;;;;;;6284131;22;20179;-86
2021/12/04 11:46:02;;;;;;;35.47;15.87;;;;;;;;;;6308268;22;20203;-86
2021/12/04 11:48:31;;;;;;;94.80;38.50;;;;;;;;;;6308460;22;20168;-86
2021/12/04 11:51:00;;;;;;;63.70;24.10;;;;;;;;;;6308828;22;20177;-85
2021/12/04 11:53:29;;;;;;;68.83;22.43;;;;;;;;;;6308392;22;20169;-86
2021/12/04 11:55:58;;;;;;;93.23;34.77;;;;;;;;;;6308318;22;20176;-85
2021/12/04 11:58:28;;;;;;;30.27;12.97;;;;;;;;;;6308697;22;20177;-86
2021/12/04 12:00:59;;;;;;;95.07;35.80;;;;;;;;;;6308811;22;20188;-86
2021/12/04 12:03:28;;;;;;;83.60;34.60;;;;;;;;;;6308633;22;20199;-86
2021/12/04 12:05:59;;;;;;;95.57;37.60;;;;;;;;;;6309047;22;20176;-86
2021/12/04 12:08:29;;;;;;;103.97;37.57;;;;;;;;;;6308179;22;20214;-86
2021/12/04 12:11:02;;;;;;;95.97;34.73;;;;;;;;;;6308021;22;20223;-86
2021/12/04 12:13:34;;;;;;;99.03;42.43;;;;;;;;;;6308328;22;20200;-86
2021/12/04 12:16:05;;;;;;;98.00;39.87;;;;;;;;;;6308379;22;20172;-85
2021/12/04 12:18:44;;;;;;;85.07;33.40;;;;;;;;;;6308681;22;20164;-86
2021/12/04 12:21:15;;;;;;;67.03;27.73;;;;;;;;;;6308237;22;20172;-86
2021/12/04 12:26:43;;;;;;;68.60;30.03;;;;;;;;;;6306621;22;20172;-86
2021/12/04 12:32:25;;;;;;;51.53;22.03;;;;;;;;;;6308349;22;20180;-85
2021/12/04 12:37:49;;;;;;;58.90;27.00;;;;;;;;;;6308581;22;20174;-86
2021/12/04 12:40:19;;;;;;;23.90;13.97;;;;;;;;;;6308237;22;20164;-86
2021/12/04 12:42:51;;;;;;;41.20;19.97;;;;;;;;;;6307998;22;20222;-86
2021/12/04 12:45:21;;;;;;;38.10;21.67;;;;;;;;;;6308054;22;20223;-86
2021/12/04 12:47:59;;;;;;;58.80;23.97;;;;;;;;;;6308307;22;20167;-86
2021/12/04 12:50:28;;;;;;;34.80;16.77;;;;;;;;;;6307971;22;20192;-86
2021/12/04 12:53:01;;;;;;;70.77;33.77;;;;;;;;;;6308241;22;20172;-86
2021/12/04 12:55:34;;;;;;;69.97;31.03;;;;;;;;;;6308053;22;20180;-86
2021/12/04 12:58:24;;;;;;;75.20;31.90;;;;;;;;;;6308089;22;20247;-86
2021/12/04 13:12:13;;;;;;;74.33;32.77;;;;;;;;;;6309786;22;20202;-86
2021/12/04 13:14:50;;;;;;;53.80;22.27;;;;;;;;;;6309944;22;20168;-86
2021/12/04 13:17:21;;;;;;;61.10;25.97;;;;;;;;;;6310031;22;20168;-86
2021/12/04 13:19:51;;;;;;;60.97;22.67;;;;;;;;;;6309832;22;20168;-86
2021/12/04 13:22:20;;;;;;;56.13;21.97;;;;;;;;;;6310291;22;20172;-86
2021/12/04 13:24:49;;;;;;;33.13;12.93;;;;;;;;;;6310176;22;20215;-86
2021/12/04 13:29:49;;;;;;;10.83;6.83;;;;;;;;;;6309688;22;20196;-87
2021/12/04 13:32:18;;;;;;;13.23;9.00;;;;;;;;;;6310199;22;20172;-87
2021/12/04 13:34:47;;;;;;;10.07;9.00;;;;;;;;;;6309863;22;20225;-87
2021/12/04 13:37:15;;;;;;;9.67;5.30;;;;;;;;;;6310018;22;20187;-88
2021/12/04 13:39:45;;;;;;;17.57;6.83;;;;;;;;;;6309837;22;20218;-87
2021/12/04 13:42:13;;;;;;;12.37;5.23;;;;;;;;;;6309675;22;20192;-87
2021/12/04 13:44:42;;;;;;;3.37;3.17;;;;;;;;;;6309758;22;20258;-85
2021/12/04 13:47:14;;;;;;;7.80;4.30;;;;;;;;;;6309227;22;20172;-85
2021/12/04 13:49:54;;;;;;;4.73;4.33;;;;;;;;;;6309863;22;20172;-85
2021/12/04 13:52:23;;;;;;;2.27;1.60;;;;;;;;;;6309431;22;20240;-84
2021/12/04 13:54:53;;;;;;;13.33;8.03;;;;;;;;;;6309990;22;20175;-84
2021/12/04 13:57:22;;;;;;;6.17;3.43;;;;;;;;;;6309576;22;20167;-84
2021/12/04 13:59:50;;;;;;;4.07;2.20;;;;;;;;;;6309844;22;20225;-84
2021/12/04 14:02:21;;;;;;;4.40;2.63;;;;;;;;;;6309156;22;20176;-84
2021/12/04 14:04:57;;;;;;;2.87;1.63;;;;;;;;;;6308514;22;20188;-83
2021/12/04 14:07:26;;;;;;;4.23;1.37;;;;;;;;;;6310040;22;20175;-83
2021/12/04 14:09:54;;;;;;;1.60;1.50;;;;;;;;;;6309433;22;20221;-81
2021/12/04 14:12:23;;;;;;;0.70;0.70;;;;;;;;;;6308686;22;20172;-82
2021/12/04 14:14:51;;;;;;;3.10;0.90;;;;;;;;;;6309064;22;20203;-82
2021/12/04 14:17:21;;;;;;;0.70;0.70;;;;;;;;;;6309577;22;20225;-81
2021/12/04 14:19:50;;;;;;;6.03;1.20;;;;;;;;;;6309614;22;20179;-81
2021/12/04 14:22:20;;;;;;;0.70;0.70;;;;;;;;;;6309683;22;20230;-81
2021/12/04 14:24:50;;;;;;;0.70;0.70;;;;;;;;;;6309910;22;20180;-82
2021/12/04 14:27:21;;;;;;;0.70;0.70;;;;;;;;;;6309519;22;20234;-82
2021/12/04 14:29:51;;;;;;;0.70;0.70;;;;;;;;;;6308814;22;20230;-82
2021/12/04 14:32:24;;;;;;;0.70;0.70;;;;;;;;;;6309448;22;20157;-82
2021/12/04 14:34:56;;;;;;;0.70;0.70;;;;;;;;;;6308978;22;20244;-82
2021/12/04 14:37:25;;;;;;;0.70;0.70;;;;;;;;;;6309687;22;20226;-81
2021/12/04 14:39:54;;;;;;;0.70;0.70;;;;;;;;;;6309255;22;20196;-81
2021/12/04 14:42:24;;;;;;;0.60;0.60;;;;;;;;;;6309337;22;20172;-81
2021/12/04 14:44:55;;;;;;;1.10;1.10;;;;;;;;;;6308823;22;20204;-82
2021/12/04 14:47:29;;;;;;;0.73;0.73;;;;;;;;;;6309346;22;20221;-82
2021/12/04 14:50:00;;;;;;;0.80;0.80;;;;;;;;;;6308988;22;20217;-82
2021/12/04 14:52:29;;;;;;;6.37;1.37;;;;;;;;;;6309408;22;20242;-82
2021/12/04 14:54:58;;;;;;;0.80;0.80;;;;;;;;;;6308695;22;20196;-82
2021/12/04 14:57:28;;;;;;;1.00;1.00;;;;;;;;;;6308871;22;20202;-82
2021/12/04 15:00:01;;;;;;;1.03;1.03;;;;;;;;;;6308768;22;20161;-82
2021/12/04 15:02:31;;;;;;;0.87;0.87;;;;;;;;;;6309079;22;20156;-82
2021/12/04 15:05:00;;;;;;;4.50;3.23;;;;;;;;;;6308831;22;20168;-82
2021/12/04 15:07:31;;;;;;;0.70;0.70;;;;;;;;;;6309119;22;20184;-82
2021/12/04 15:09:59;;;;;;;2.80;2.20;;;;;;;;;;6308538;22;20172;-82
2021/12/04 15:12:29;;;;;;;0.80;0.80;;;;;;;;;;6308207;22;20192;-82
2021/12/04 15:15:00;;;;;;;1.50;1.13;;;;;;;;;;6308790;22;20202;-82
2021/12/04 15:17:28;;;;;;;0.80;0.80;;;;;;;;;;6308484;22;20217;-82
2021/12/04 15:20:02;;;;;;;0.70;0.70;;;;;;;;;;6308694;22;20177;-81
2021/12/04 15:22:34;;;;;;;0.70;0.70;;;;;;;;;;6308554;22;20159;-81
2021/12/04 15:25:04;;;;;;;0.70;0.70;;;;;;;;;;6308936;22;20169;-82
2021/12/04 15:27:33;;;;;;;0.67;0.67;;;;;;;;;;6308461;22;20172;-82
2021/12/04 15:30:02;;;;;;;1.00;1.00;;;;;;;;;;6308826;22;20172;-82
2021/12/04 15:32:30;;;;;;;3.00;1.43;;;;;;;;;;6308346;22;20267;-82
2021/12/04 15:35:05;;;;;;;0.70;0.70;;;;;;;;;;6309054;22;20183;-82
2021/12/04 15:37:38;;;;;;;4.63;1.10;;;;;;;;;;6308407;22;20224;-81
2021/12/04 15:40:11;;;;;;;12.93;2.97;;;;;;;;;;6309066;22;20158;-81
2021/12/04 15:42:51;;;;;;;2.53;1.33;;;;;;;;;;6308850;22;20168;-81
2021/12/04 15:45:40;;;;;;;1.43;1.33;;;;;;;;;;6308594;22;20265;-81
2021/12/04 15:48:33;;;;;;;4.63;1.33;;;;;;;;;;6308295;22;20172;-81
2021/12/04 15:54:05;;;;;;;0.77;0.77;;;;;;;;;;6282297;22;20183;-81
2021/12/04 15:56:37;;;;;;;2.27;1.13;;;;;;;;;;6308705;22;20225;-81
2021/12/04 15:59:07;;;;;;;1.27;1.27;;;;;;;;;;6308191;22;20214;-82
2021/12/04 16:01:35;;;;;;;3.37;1.47;;;;;;;;;;6308876;22;20180;-81
2021/12/04 16:04:04;;;;;;;0.70;0.70;;;;;;;;;;6308339;22;20204;-82
2021/12/04 16:06:39;;;;;;;5.20;1.63;;;;;;;;;;6308229;22;20221;-81
2021/12/04 16:09:09;;;;;;;4.40;1.33;;;;;;;;;;6308622;22;20172;-82
2021/12/04 16:11:38;;;;;;;1.80;0.90;;;;;;;;;;6308321;22;20192;-82
2021/12/04 16:14:08;;;;;;;3.50;1.57;;;;;;;;;;6308248;22;20171;-82
2021/12/04 16:16:39;;;;;;;3.60;1.53;;;;;;;;;;6308204;22;20176;-83
2021/12/04 16:19:09;;;;;;;1.30;0.90;;;;;;;;;;6307980;22;20176;-83
2021/12/04 16:21:37;;;;;;;0.80;0.80;;;;;;;;;;6308019;22;20173;-83
2021/12/04 16:24:06;;;;;;;1.23;1.00;;;;;;;;;;6308507;22;20168;-84
2021/12/04 16:26:38;;;;;;;1.10;1.10;;;;;;;;;;6308533;22;20224;-83
2021/12/04 16:29:09;;;;;;;0.80;0.80;;;;;;;;;;6308300;22;20218;-83
2021/12/04 16:37:30;;;;;;;7.47;2.40;;;;;;;;;;6308003;22;20191;-84
2021/12/04 16:39:59;;;;;;;3.93;0.83;;;;;;;;;;6308075;22;20168;-84
2021/12/04 16:42:29;;;;;;;2.40;1.17;;;;;;;;;;6307748;22;20198;-84
2021/12/04 16:45:18;;;;;;;2.60;1.20;;;;;;;;;;6307765;22;20204;-84
2021/12/04 16:47:49;;;;;;;5.07;1.73;;;;;;;;;;6307898;22;20176;-85
2021/12/04 16:50:21;;;;;;;3.63;2.23;;;;;;;;;;6308026;22;20164;-84
2021/12/04 16:55:50;;;;;;;5.53;2.53;;;;;;;;;;6308224;22;20172;-85
2021/12/04 16:58:20;;;;;;;5.57;2.70;;;;;;;;;;6308058;22;20165;-85
2021/12/04 17:00:49;;;;;;;7.93;2.30;;;;;;;;;;6308428;22;20165;-85
2021/12/04 17:03:18;;;;;;;4.77;1.13;;;;;;;;;;6308126;22;20184;-85
2021/12/04 17:05:47;;;;;;;2.47;1.70;;;;;;;;;;6307807;22;20183;-85
2021/12/04 17:08:16;;;;;;;2.30;1.27;;;;;;;;;;6308266;22;20199;-85
2021/12/04 17:10:45;;;;;;;2.53;1.17;;;;;;;;;;6308288;22;20226;-85
2021/12/04 17:13:13;;;;;;;7.00;2.17;;;;;;;;;;6307799;22;20196;-85
2021/12/04 17:15:46;;;;;;;8.37;1.37;;;;;;;;;;6307937;22;20226;-85
2021/12/04 17:18:16;;;;;;;3.70;2.03;;;;;;;;;;6307916;22;20164;-85